Terminal Aerodrome Forecast
Issued by NWS Grand Forks, ND

Home | Current Version | Previous Version | Graphics & Text | Print | Product List | Glossary On
Versions: 1 2 3 4 5 6 7 8 9 10 11 12 13 14 15 16 17
000
FTUS43 KFGF 232015 AAA
TAFFAR
TAF AMD
KFAR 232015Z 2320/2418 17017G27KT P6SM FEW120
     FM240000 24015G23KT P6SM VCTS BKN050CB
     FM240200 29012KT P6SM SCT100
     FM241600 27013G18KT P6SM SCT200=

USA.gov is the U.S. government's official web portal to all federal, state and local government web resources and services.